createdAt,value
2023-01-15T00:01:25.177Z,71.79
2023-01-15T00:03:52.950Z,70.78
2023-01-15T00:06:20.304Z,69.72
2023-01-15T00:08:47.849Z,68.55
2023-01-15T00:11:14.675Z,69.26
2023-01-15T00:13:41.758Z,68.04
2023-01-15T00:16:12.891Z,67.08
2023-01-15T00:18:39.887Z,65.47
2023-01-15T00:21:09.882Z,65.38
2023-01-15T00:23:36.618Z,64.92
2023-01-15T00:26:03.419Z,62.78
2023-01-15T00:28:30.094Z,62.37
2023-01-15T00:30:56.871Z,64.57
2023-01-15T00:33:25.084Z,65.30
2023-01-15T00:35:51.819Z,66.56
2023-01-15T00:38:18.541Z,66.36
2023-01-15T00:40:45.191Z,65.69
2023-01-15T00:43:11.880Z,65.43
2023-01-15T00:45:38.834Z,64.96
2023-01-15T00:48:05.783Z,65.71
2023-01-15T00:50:33.829Z,64.76
2023-01-15T00:53:00.525Z,65.84
2023-01-15T00:55:27.316Z,63.45
2023-01-15T00:57:54.136Z,62.17
2023-01-15T01:00:21.123Z,61.45
2023-01-15T01:02:47.864Z,61.36
2023-01-15T01:05:14.770Z,61.20
2023-01-15T01:07:42.920Z,61.63
2023-01-15T01:10:10.362Z,60.73
2023-01-15T01:12:37.106Z,59.86
2023-01-15T01:15:04.662Z,60.21
2023-01-15T01:17:31.351Z,59.79
2023-01-15T01:19:58.016Z,60.29
2023-01-15T01:22:24.984Z,59.74
2023-01-15T01:24:53.388Z,59.77
2023-01-15T01:27:20.403Z,59.59
2023-01-15T01:29:47.360Z,60.67
2023-01-15T01:32:14.013Z,59.92
2023-01-15T01:34:40.832Z,58.97
2023-01-15T01:37:07.551Z,59.93
2023-01-15T01:39:34.265Z,60.66
2023-01-15T01:42:02.561Z,62.87
2023-01-15T01:45:02.919Z,61.90
2023-01-15T01:47:31.312Z,61.28
2023-01-15T01:50:01.977Z,61.31
2023-01-15T01:52:32.939Z,61.95
2023-01-15T01:55:02.722Z,62.29
2023-01-15T01:57:31.192Z,61.92
2023-01-15T01:59:59.109Z,62.03
2023-01-15T02:02:26.192Z,64.09
2023-01-15T02:04:56.032Z,64.32
2023-01-15T02:07:22.798Z,65.85
2023-01-15T02:09:49.535Z,65.85
2023-01-15T02:12:22.763Z,66.23
2023-01-15T02:14:59.674Z,68.09
2023-01-15T02:17:33.481Z,69.37
2023-01-15T02:20:24.838Z,67.68
2023-01-15T02:23:16.293Z,67.23
2023-01-15T02:25:58.123Z,67.54
2023-01-15T02:28:29.200Z,70.58
2023-01-15T02:31:02.927Z,69.00
2023-01-15T02:33:35.724Z,70.27
2023-01-15T02:36:03.611Z,72.06
2023-01-15T02:38:34.121Z,71.25
2023-01-15T02:41:05.783Z,71.19
2023-01-15T02:43:36.766Z,72.66
2023-01-15T02:46:05.719Z,71.37
2023-01-15T02:48:36.449Z,72.75
2023-01-15T02:51:09.303Z,74.45
2023-01-15T02:53:39.260Z,74.43
2023-01-15T02:56:11.945Z,76.10
2023-01-15T02:58:43.806Z,74.35
2023-01-15T03:01:15.098Z,74.63
2023-01-15T03:03:49.605Z,73.29
2023-01-15T03:06:22.084Z,73.99
2023-01-15T03:08:48.943Z,73.06
2023-01-15T03:11:18.632Z,72.40
2023-01-15T03:13:51.228Z,69.75
2023-01-15T03:16:27.333Z,71.85
2023-01-15T03:19:06.122Z,72.26
2023-01-15T03:21:44.211Z,71.99
2023-01-15T03:24:13.107Z,69.44
2023-01-15T03:26:39.853Z,70.19
2023-01-15T03:29:09.535Z,70.12
2023-01-15T03:31:36.815Z,69.78
2023-01-15T03:34:04.125Z,71.29
2023-01-15T03:36:30.903Z,70.90
2023-01-15T03:38:58.811Z,71.07
2023-01-15T03:41:31.857Z,71.80
2023-01-15T03:44:08.672Z,72.61
2023-01-15T03:46:54.488Z,73.32
2023-01-15T03:49:28.439Z,71.38
2023-01-15T03:52:01.802Z,71.80
2023-01-15T03:54:42.481Z,71.07
2023-01-15T03:57:15.200Z,70.85
2023-01-15T03:59:49.971Z,72.63
2023-01-15T04:02:21.792Z,72.69
2023-01-15T04:04:50.699Z,73.23
2023-01-15T04:07:17.962Z,72.55
2023-01-15T04:09:44.688Z,72.41
2023-01-15T04:12:11.496Z,74.87
2023-01-15T04:14:38.486Z,72.41
2023-01-15T04:17:05.159Z,71.50
2023-01-15T04:19:33.569Z,72.63
2023-01-15T04:22:00.309Z,69.93
2023-01-15T04:24:27.058Z,69.65
2023-01-15T04:26:53.806Z,71.73
2023-01-15T04:29:20.902Z,72.15
2023-01-15T04:31:47.648Z,73.53
2023-01-15T04:34:14.415Z,75.77
2023-01-15T04:36:42.514Z,76.05
2023-01-15T04:39:10.322Z,76.64
2023-01-15T04:41:37.003Z,75.02
2023-01-15T04:44:04.012Z,75.36
2023-01-15T04:46:30.947Z,73.97
2023-01-15T04:48:57.682Z,75.90
2023-01-15T04:51:24.428Z,77.53
2023-01-15T04:53:52.628Z,77.51
2023-01-15T04:56:19.430Z,77.46
2023-01-15T04:58:46.163Z,76.29
2023-01-15T05:01:14.509Z,76.71
2023-01-15T05:03:42.465Z,76.41
2023-01-15T05:06:09.963Z,73.95
2023-01-15T05:08:36.771Z,72.82
2023-01-15T05:11:06.890Z,73.86
2023-01-15T05:13:33.711Z,74.63
2023-01-15T05:16:08.758Z,72.62
2023-01-15T05:18:35.560Z,73.23
2023-01-15T05:21:02.280Z,74.19
2023-01-15T05:23:29.041Z,75.75
2023-01-15T05:25:56.011Z,77.01
2023-01-15T05:28:24.098Z,75.05
2023-01-15T05:30:50.867Z,74.02
2023-01-15T05:33:17.585Z,74.34
2023-01-15T05:35:44.280Z,74.25
2023-01-15T05:38:10.968Z,75.67
2023-01-15T05:40:37.634Z,75.62
2023-01-15T05:43:04.322Z,73.97
2023-01-15T05:45:34.977Z,75.36
2023-01-15T05:48:01.634Z,73.21
2023-01-15T05:50:29.137Z,73.00
2023-01-15T05:52:55.877Z,73.37
2023-01-15T05:55:22.577Z,73.00
2023-01-15T05:57:49.260Z,73.35
2023-01-15T06:00:17.013Z,73.46
2023-01-15T06:02:49.391Z,72.67
2023-01-15T06:05:16.789Z,73.72
2023-01-15T06:07:43.591Z,73.48
2023-01-15T06:10:10.564Z,71.04
2023-01-15T06:12:37.284Z,71.33
2023-01-15T06:15:04.644Z,72.62
2023-01-15T06:17:31.343Z,71.64
2023-01-15T06:19:59.503Z,72.53
2023-01-15T06:22:26.194Z,72.29
2023-01-15T06:24:52.848Z,70.80
2023-01-15T06:27:19.611Z,71.62
2023-01-15T06:29:46.302Z,72.83
2023-01-15T06:32:13.586Z,70.91
2023-01-15T06:34:40.307Z,71.11
2023-01-15T06:37:08.376Z,72.21
2023-01-15T06:39:35.118Z,74.99
2023-01-15T06:42:01.942Z,77.64
2023-01-15T06:44:28.616Z,78.58
2023-01-15T06:46:55.369Z,82.38
2023-01-15T06:49:22.173Z,84.19
2023-01-15T06:51:48.863Z,86.03
2023-01-15T06:54:16.944Z,88.14
2023-01-15T06:56:43.651Z,86.06
2023-01-15T06:59:12.515Z,83.93
2023-01-15T07:01:39.478Z,85.21
2023-01-15T07:04:06.253Z,84.79
2023-01-15T07:06:32.967Z,84.40
2023-01-15T07:08:59.797Z,84.34
2023-01-15T07:11:27.974Z,82.11
2023-01-15T07:13:54.702Z,81.59
2023-01-15T07:16:21.452Z,81.71
2023-01-15T07:18:48.189Z,82.53
2023-01-15T07:21:14.903Z,80.19
2023-01-15T07:23:41.579Z,81.52
2023-01-15T07:26:08.388Z,80.91
2023-01-15T07:28:36.540Z,80.78
2023-01-15T07:31:03.312Z,81.70
2023-01-15T07:33:30.264Z,82.21
2023-01-15T07:35:56.955Z,80.55
2023-01-15T07:38:23.700Z,82.12
2023-01-15T07:40:50.440Z,81.57
2023-01-15T07:43:17.108Z,81.60
2023-01-15T07:45:45.303Z,79.88
2023-01-15T07:48:12.079Z,80.89
2023-01-15T07:50:38.895Z,80.95
2023-01-15T07:53:05.607Z,79.68
2023-01-15T07:55:32.428Z,79.53
2023-01-15T07:57:59.097Z,77.59
2023-01-15T08:00:25.795Z,77.13
2023-01-15T08:02:53.922Z,75.71
2023-01-15T08:05:21.061Z,75.81
2023-01-15T08:07:48.095Z,75.78
2023-01-15T08:10:15.116Z,76.11
2023-01-15T08:12:41.983Z,74.77
2023-01-15T08:15:10.248Z,74.58
2023-01-15T08:17:38.015Z,75.35
2023-01-15T08:20:08.506Z,76.87
2023-01-15T08:22:35.291Z,75.68
2023-01-15T08:25:02.071Z,75.66
2023-01-15T08:27:28.788Z,75.22
2023-01-15T08:29:55.581Z,76.93
2023-01-15T08:32:22.309Z,77.67
2023-01-15T08:34:49.053Z,76.56
2023-01-15T08:37:17.285Z,77.47
2023-01-15T08:39:44.287Z,80.79
2023-01-15T08:42:10.975Z,79.60
2023-01-15T08:44:37.643Z,79.74
2023-01-15T08:47:04.456Z,80.69
2023-01-15T08:49:31.183Z,81.15
2023-01-15T08:51:57.890Z,82.48
2023-01-15T08:54:26.031Z,82.90
2023-01-15T08:56:52.875Z,82.25
2023-01-15T08:59:19.690Z,79.82
2023-01-15T09:01:46.534Z,81.30
2023-01-15T09:04:14.277Z,80.59
2023-01-15T09:06:41.194Z,80.28
2023-01-15T09:09:08.006Z,80.76
2023-01-15T09:11:36.443Z,79.72
2023-01-15T09:14:03.240Z,80.43
2023-01-15T09:16:30.008Z,80.23
2023-01-15T09:18:56.689Z,83.16
2023-01-15T09:21:23.417Z,85.19
2023-01-15T09:23:50.136Z,87.81
2023-01-15T09:26:28.531Z,87.51
2023-01-15T09:28:56.888Z,89.21
2023-01-15T09:31:23.959Z,89.26
2023-01-15T09:33:50.918Z,89.37
2023-01-15T09:36:18.786Z,89.81
2023-01-15T09:38:45.525Z,89.14
2023-01-15T09:41:14.768Z,90.83
2023-01-15T09:43:52.109Z,89.05
2023-01-15T09:46:25.921Z,88.59
2023-01-15T09:49:03.441Z,87.81
2023-01-15T09:51:38.027Z,88.60
2023-01-15T09:54:20.891Z,89.28
2023-01-15T09:56:48.489Z,89.03
2023-01-15T09:59:22.533Z,86.36
2023-01-15T10:01:52.664Z,86.34
2023-01-15T10:04:34.312Z,85.85
2023-01-15T10:07:11.393Z,87.22
2023-01-15T10:09:40.681Z,87.26
2023-01-15T10:12:16.883Z,86.75
2023-01-15T10:14:50.445Z,87.99
2023-01-15T10:17:25.106Z,87.25
2023-01-15T10:19:52.551Z,86.32
2023-01-15T10:22:40.148Z,87.79
2023-01-15T10:25:15.179Z,85.66
2023-01-15T10:27:47.003Z,86.07
2023-01-15T10:30:16.927Z,86.46
2023-01-15T10:33:01.136Z,86.82
2023-01-15T10:35:40.398Z,86.43
2023-01-15T10:38:16.147Z,86.55
2023-01-15T10:41:24.039Z,87.80
2023-01-15T10:43:55.428Z,89.29
2023-01-15T10:46:25.972Z,87.24
2023-01-15T10:48:58.408Z,84.64
2023-01-15T10:51:29.763Z,84.60
2023-01-15T10:54:01.905Z,83.07
2023-01-15T10:56:34.618Z,83.10
2023-01-15T10:59:11.858Z,82.81
2023-01-15T11:01:40.493Z,82.92
2023-01-15T11:04:10.887Z,82.84
2023-01-15T11:06:37.705Z,81.64
2023-01-15T11:09:10.450Z,81.36
2023-01-15T11:11:43.525Z,83.90
2023-01-15T11:14:10.458Z,84.31
2023-01-15T11:16:38.240Z,85.51
2023-01-15T11:19:06.478Z,84.28
2023-01-15T11:21:42.415Z,83.79
2023-01-15T11:24:15.414Z,84.66
2023-01-15T11:26:48.062Z,84.36
2023-01-15T11:29:20.383Z,85.59
2023-01-15T11:31:47.090Z,87.18
2023-01-15T11:34:21.796Z,87.86
2023-01-15T11:37:01.728Z,87.96
2023-01-15T11:39:29.366Z,88.72
2023-01-15T11:41:59.278Z,90.30
2023-01-15T11:44:26.001Z,90.85
2023-01-15T11:46:55.578Z,91.14
2023-01-15T11:49:22.579Z,90.61
2023-01-15T11:51:50.744Z,90.06
2023-01-15T11:54:18.023Z,89.97
2023-01-15T11:56:45.976Z,88.47
2023-01-15T11:59:14.745Z,87.46
2023-01-15T12:01:50.361Z,86.86
2023-01-15T12:04:36.921Z,87.75
2023-01-15T12:07:11.728Z,88.50
2023-01-15T12:09:57.721Z,88.08
2023-01-15T12:12:37.234Z,88.13
2023-01-15T12:15:16.182Z,88.77
2023-01-15T12:18:06.393Z,88.96
2023-01-15T12:20:49.314Z,89.31
2023-01-15T12:23:47.296Z,89.17
2023-01-15T12:26:19.865Z,91.02
2023-01-15T12:28:55.089Z,93.88
2023-01-15T12:31:27.846Z,94.51
2023-01-15T12:34:01.351Z,94.36
2023-01-15T12:36:31.934Z,95.64
2023-01-15T12:39:01.741Z,96.73
2023-01-15T12:41:33.477Z,96.44
2023-01-15T12:44:00.293Z,96.74
2023-01-15T12:46:31.980Z,95.78
2023-01-15T12:49:06.743Z,97.01
2023-01-15T12:51:39.204Z,95.28
2023-01-15T12:54:13.411Z,94.42
2023-01-15T12:56:51.625Z,93.52
2023-01-15T12:59:24.347Z,93.46
2023-01-15T13:01:59.054Z,93.55
2023-01-15T13:04:32.675Z,93.42
2023-01-15T13:07:18.430Z,93.12
2023-01-15T13:09:53.904Z,92.60
2023-01-15T13:12:20.739Z,92.78
2023-01-15T13:14:47.615Z,93.12
2023-01-15T13:17:23.435Z,93.53
2023-01-15T13:20:05.986Z,93.72
2023-01-15T13:22:50.566Z,93.17
2023-01-15T13:25:34.667Z,92.83
2023-01-15T13:28:20.333Z,92.26
2023-01-15T13:31:06.819Z,91.80
2023-01-15T13:33:40.092Z,91.54
2023-01-15T13:36:15.008Z,91.11
2023-01-15T13:38:44.702Z,91.44
2023-01-15T13:41:20.866Z,91.79
2023-01-15T13:43:47.744Z,92.43
2023-01-15T13:46:21.059Z,91.72
2023-01-15T13:48:50.215Z,90.30
2023-01-15T13:51:28.080Z,90.23
2023-01-15T13:53:58.039Z,90.70
2023-01-15T13:56:31.303Z,88.86
2023-01-15T13:59:00.074Z,88.28
2023-01-15T14:01:33.753Z,85.92
2023-01-15T14:04:04.911Z,83.91
2023-01-15T14:06:40.564Z,81.74
2023-01-15T14:09:09.848Z,81.86
2023-01-15T14:11:43.178Z,83.27
2023-01-15T14:14:27.302Z,84.09
2023-01-15T14:17:05.128Z,82.93
2023-01-15T14:19:51.678Z,80.55
2023-01-15T14:22:38.824Z,79.68
2023-01-15T14:25:23.594Z,78.27
2023-01-15T14:28:04.414Z,77.12
2023-01-15T14:31:01.268Z,76.56
2023-01-15T14:33:36.912Z,77.65
2023-01-15T14:36:14.951Z,75.44
2023-01-15T14:38:48.198Z,73.04
2023-01-15T14:41:15.321Z,72.14
2023-01-15T14:43:49.516Z,71.32
2023-01-15T14:46:26.176Z,72.44
2023-01-15T14:48:53.000Z,73.30
2023-01-15T14:51:26.067Z,74.98
2023-01-15T14:53:57.960Z,75.86
2023-01-15T14:56:30.107Z,76.44
2023-01-15T14:59:03.395Z,76.63
2023-01-15T15:01:36.920Z,77.83
2023-01-15T15:04:18.854Z,78.06
2023-01-15T15:06:49.856Z,78.75
2023-01-15T15:09:27.742Z,79.52
2023-01-15T15:11:58.289Z,79.77
2023-01-15T15:14:26.713Z,79.73
2023-01-15T15:16:55.417Z,79.83
2023-01-15T15:19:29.290Z,79.56
2023-01-15T15:22:02.917Z,79.65
2023-01-15T15:24:32.455Z,79.99
2023-01-15T15:27:09.343Z,79.96
2023-01-15T15:29:37.442Z,79.32
2023-01-15T15:32:04.203Z,78.38
2023-01-15T15:34:33.955Z,78.98
2023-01-15T15:37:04.196Z,78.71
2023-01-15T15:39:38.906Z,77.30
2023-01-15T15:42:15.461Z,75.85
2023-01-15T15:44:50.466Z,76.09
2023-01-15T15:47:19.291Z,76.64
2023-01-15T15:49:45.926Z,76.82
2023-01-15T15:52:19.900Z,77.59
2023-01-15T15:54:57.445Z,77.77
2023-01-15T15:57:24.424Z,78.43
2023-01-15T15:59:53.281Z,79.49
2023-01-15T16:02:24.524Z,79.93
2023-01-15T16:04:53.479Z,80.64
2023-01-15T16:07:23.400Z,81.63
2023-01-15T16:09:53.042Z,81.95
2023-01-15T16:12:21.181Z,82.54
2023-01-15T16:14:48.832Z,83.80
2023-01-15T16:17:17.463Z,84.86
2023-01-15T16:19:44.937Z,86.52
2023-01-15T16:22:16.702Z,87.30
2023-01-15T16:24:53.724Z,87.54
2023-01-15T16:27:20.848Z,87.25
2023-01-15T16:29:50.985Z,86.60
2023-01-15T16:32:23.767Z,85.64
2023-01-15T16:34:51.304Z,85.01
2023-01-15T16:37:26.143Z,84.62
2023-01-15T16:39:52.984Z,84.27
2023-01-15T16:42:30.400Z,84.19
2023-01-15T16:45:00.263Z,84.00
2023-01-15T16:47:31.714Z,84.06
2023-01-15T16:50:29.942Z,84.18
2023-01-15T16:52:58.116Z,84.23
2023-01-15T16:55:41.244Z,84.95
2023-01-15T16:58:31.126Z,85.73
2023-01-15T17:00:57.881Z,86.40
2023-01-15T17:03:27.315Z,86.65
2023-01-15T17:05:56.789Z,87.48
2023-01-15T17:08:28.804Z,88.18
2023-01-15T17:10:57.936Z,88.37
2023-01-15T17:13:31.628Z,88.38
2023-01-15T17:16:14.685Z,88.26
2023-01-15T17:18:42.913Z,88.53
2023-01-15T17:21:15.658Z,89.26
2023-01-15T17:23:42.431Z,89.86
2023-01-15T17:26:16.784Z,89.80
2023-01-15T17:28:43.608Z,89.86
2023-01-15T17:31:20.070Z,89.98
2023-01-15T17:33:48.126Z,90.31
2023-01-15T17:36:14.801Z,90.27
2023-01-15T17:38:41.559Z,90.50
2023-01-15T17:41:10.106Z,90.81
2023-01-15T17:43:36.816Z,90.72
2023-01-15T17:46:03.604Z,90.55
2023-01-15T17:48:30.425Z,90.88
2023-01-15T17:51:01.127Z,91.01
2023-01-15T17:53:27.851Z,91.29
2023-01-15T17:55:54.546Z,91.50
2023-01-15T17:58:21.250Z,92.10
2023-01-15T18:00:49.316Z,92.29
2023-01-15T18:03:20.788Z,92.87
2023-01-15T18:05:50.481Z,93.41
2023-01-15T18:08:18.942Z,93.73
2023-01-15T18:10:45.679Z,93.69
2023-01-15T18:13:12.462Z,93.25
2023-01-15T18:15:39.265Z,93.26
2023-01-15T18:18:06.061Z,93.32
2023-01-15T18:20:32.765Z,93.63
2023-01-15T18:22:59.431Z,94.05
2023-01-15T18:25:27.469Z,93.92
2023-01-15T18:27:54.188Z,93.88
2023-01-15T18:30:21.234Z,93.85
2023-01-15T18:32:47.938Z,94.20
2023-01-15T18:35:14.674Z,94.45
2023-01-15T18:37:41.427Z,94.36
2023-01-15T18:40:09.522Z,94.54
2023-01-15T18:42:39.794Z,94.58
2023-01-15T18:45:07.182Z,94.52
2023-01-15T18:47:33.911Z,94.73
2023-01-15T18:50:00.637Z,94.52
2023-01-15T18:52:27.305Z,94.85
2023-01-15T18:54:53.945Z,94.72
2023-01-15T18:57:21.005Z,94.53
2023-01-15T18:59:49.268Z,94.09
2023-01-15T19:02:16.758Z,94.04
2023-01-15T19:04:43.499Z,93.80
2023-01-15T19:07:11.105Z,93.71
2023-01-15T19:09:38.185Z,93.47
2023-01-15T19:12:06.191Z,93.48
2023-01-15T19:14:33.321Z,93.66
2023-01-15T19:17:01.503Z,93.73
2023-01-15T19:19:28.672Z,93.71
2023-01-15T19:21:55.991Z,93.80
2023-01-15T19:24:22.764Z,93.81
2023-01-15T19:26:49.492Z,93.47
2023-01-15T19:29:16.132Z,92.74
2023-01-15T19:31:42.835Z,92.66
2023-01-15T19:34:32.758Z,92.69
2023-01-15T19:36:58.144Z,92.52
2023-01-15T19:39:25.078Z,92.16
2023-01-15T19:41:51.891Z,92.19
2023-01-15T19:44:18.612Z,92.50
2023-01-15T19:46:45.874Z,92.78
2023-01-15T19:49:18.547Z,93.79
2023-01-15T19:51:46.605Z,94.35
2023-01-15T19:54:13.437Z,94.75
2023-01-15T19:56:40.168Z,95.01
2023-01-15T19:59:07.912Z,95.27
2023-01-15T20:01:34.708Z,95.25
2023-01-15T20:04:01.495Z,95.34
2023-01-15T20:06:29.647Z,95.30
2023-01-15T20:08:56.346Z,95.48
2023-01-15T20:11:23.065Z,95.58
2023-01-15T20:13:51.374Z,95.94
2023-01-15T20:16:21.004Z,95.72
2023-01-15T20:18:48.947Z,95.53
2023-01-15T20:21:15.769Z,95.50
2023-01-15T20:23:44.580Z,95.42
2023-01-15T20:26:13.283Z,94.81
2023-01-15T20:28:41.101Z,94.54
2023-01-15T20:31:14.480Z,94.03
2023-01-15T20:33:41.211Z,93.95
2023-01-15T20:36:08.903Z,93.52
2023-01-15T20:38:35.591Z,93.60
2023-01-15T20:41:07.532Z,93.51
2023-01-15T20:43:34.266Z,93.40
2023-01-15T20:46:08.598Z,93.28
2023-01-15T20:48:35.442Z,92.26
2023-01-15T20:51:10.862Z,91.84
2023-01-15T20:53:37.573Z,91.42
2023-01-15T20:56:11.053Z,91.21
2023-01-15T20:58:39.225Z,91.22
2023-01-15T21:01:08.383Z,91.20
2023-01-15T21:03:35.509Z,91.49
2023-01-15T21:06:04.711Z,91.49
2023-01-15T21:08:32.146Z,91.82
2023-01-15T21:10:59.529Z,91.85
2023-01-15T21:13:26.223Z,91.36
2023-01-15T21:15:55.730Z,91.28
2023-01-15T21:18:24.063Z,91.75
2023-01-15T21:20:50.764Z,92.03
2023-01-15T21:23:17.456Z,92.54
2023-01-15T21:25:44.180Z,92.95
2023-01-15T21:28:10.853Z,93.76
2023-01-15T21:30:39.359Z,94.31
2023-01-15T21:33:08.890Z,94.72
2023-01-15T21:35:38.975Z,95.02
2023-01-15T21:38:05.851Z,95.26
2023-01-15T21:40:32.568Z,95.21
2023-01-15T21:42:59.219Z,94.97
2023-01-15T21:45:25.966Z,95.35
2023-01-15T21:47:52.654Z,95.60
2023-01-15T21:50:20.714Z,95.64
2023-01-15T21:52:47.667Z,95.47
2023-01-15T21:55:14.541Z,95.28
2023-01-15T21:57:41.260Z,95.35
2023-01-15T22:00:10.165Z,95.33
2023-01-15T22:02:37.258Z,94.90
2023-01-15T22:05:05.137Z,94.66
2023-01-15T22:07:33.187Z,94.68
2023-01-15T22:09:59.904Z,94.79
2023-01-15T22:12:26.639Z,94.70
2023-01-15T22:14:53.590Z,94.33
2023-01-15T22:17:20.566Z,93.92
2023-01-15T22:19:47.253Z,93.64
2023-01-15T22:22:13.911Z,94.10
2023-01-15T22:24:42.029Z,93.88
2023-01-15T22:27:13.400Z,93.93
2023-01-15T22:29:41.241Z,94.21
2023-01-15T22:32:09.800Z,94.30
2023-01-15T22:34:36.735Z,93.88
2023-01-15T22:37:03.461Z,93.66
2023-01-15T22:39:30.228Z,93.88
2023-01-15T22:41:58.345Z,94.06
2023-01-15T22:44:25.175Z,94.18
2023-01-15T22:46:51.876Z,94.49
2023-01-15T22:49:18.545Z,94.48
2023-01-15T22:51:45.208Z,94.50
2023-01-15T22:54:11.989Z,94.53
2023-01-15T22:56:38.819Z,94.43
2023-01-15T22:59:07.850Z,94.28
2023-01-15T23:01:34.674Z,93.88
2023-01-15T23:04:01.452Z,93.79
2023-01-15T23:06:28.129Z,93.65
2023-01-15T23:08:57.840Z,93.65
2023-01-15T23:11:24.889Z,93.89
2023-01-15T23:13:51.955Z,94.13
2023-01-15T23:16:20.409Z,94.14
2023-01-15T23:18:47.918Z,94.40
2023-01-15T23:21:17.845Z,94.35
2023-01-15T23:23:45.069Z,94.30
2023-01-15T23:26:14.829Z,94.24
2023-01-15T23:28:42.443Z,94.40
2023-01-15T23:31:09.873Z,94.08
2023-01-15T23:33:38.191Z,94.04
2023-01-15T23:36:05.466Z,93.55
2023-01-15T23:38:32.181Z,93.42
2023-01-15T23:40:58.914Z,93.00
2023-01-15T23:43:25.865Z,92.88
2023-01-15T23:45:52.635Z,92.76
2023-01-15T23:48:19.374Z,92.19
2023-01-15T23:50:47.442Z,92.04
2023-01-15T23:53:14.136Z,92.55
2023-01-15T23:55:40.807Z,93.10
2023-01-15T23:58:07.497Z,93.77
